sensor_id;sensor_type;location;lat;lon;timestamp;P1;durP1;ratioP1;P2;durP2;ratioP2
7841;SDS011;3966;51.052;13.820;2022-07-23T00:02:19;3.50;;;3.20;;
7841;SDS011;3966;51.052;13.820;2022-07-23T00:04:45;3.17;;;2.65;;
7841;SDS011;3966;51.052;13.820;2022-07-23T00:07:10;2.80;;;2.60;;
7841;SDS011;3966;51.052;13.820;2022-07-23T00:09:36;6.88;;;2.75;;
7841;SDS011;3966;51.052;13.820;2022-07-23T00:12:01;7.82;;;2.90;;
7841;SDS011;3966;51.052;13.820;2022-07-23T00:14:27;4.82;;;2.63;;
7841;SDS011;3966;51.052;13.820;2022-07-23T00:16:52;3.33;;;2.90;;
7841;SDS011;3966;51.052;13.820;2022-07-23T00:19:18;9.23;;;2.95;;
7841;SDS011;3966;51.052;13.820;2022-07-23T00:21:43;4.85;;;3.17;;
7841;SDS011;3966;51.052;13.820;2022-07-23T00:24:09;3.10;;;2.85;;
7841;SDS011;3966;51.052;13.820;2022-07-23T00:26:34;3.15;;;2.90;;
7841;SDS011;3966;51.052;13.820;2022-07-23T00:28:59;3.30;;;2.70;;
7841;SDS011;3966;51.052;13.820;2022-07-23T00:31:25;3.47;;;2.70;;
7841;SDS011;3966;51.052;13.820;2022-07-23T00:33:52;3.47;;;3.17;;
7841;SDS011;3966;51.052;13.820;2022-07-23T00:36:21;2.88;;;2.67;;
7841;SDS011;3966;51.052;13.820;2022-07-23T00:38:48;5.03;;;2.63;;
7841;SDS011;3966;51.052;13.820;2022-07-23T00:41:14;3.80;;;2.72;;
7841;SDS011;3966;51.052;13.820;2022-07-23T00:43:39;5.03;;;2.42;;
7841;SDS011;3966;51.052;13.820;2022-07-23T00:46:05;3.58;;;3.17;;
7841;SDS011;3966;51.052;13.820;2022-07-23T00:48:30;4.80;;;3.10;;
7841;SDS011;3966;51.052;13.820;2022-07-23T00:50:56;3.67;;;3.15;;
7841;SDS011;3966;51.052;13.820;2022-07-23T00:53:21;3.83;;;2.80;;
7841;SDS011;3966;51.052;13.820;2022-07-23T00:55:48;3.20;;;3.00;;
7841;SDS011;3966;51.052;13.820;2022-07-23T00:58:14;3.35;;;3.00;;
7841;SDS011;3966;51.052;13.820;2022-07-23T01:00:41;3.90;;;3.13;;
7841;SDS011;3966;51.052;13.820;2022-07-23T01:03:06;5.65;;;3.70;;
7841;SDS011;3966;51.052;13.820;2022-07-23T01:05:32;3.30;;;3.00;;
7841;SDS011;3966;51.052;13.820;2022-07-23T01:07:58;4.88;;;2.85;;
7841;SDS011;3966;51.052;13.820;2022-07-23T01:10:24;5.63;;;2.88;;
7841;SDS011;3966;51.052;13.820;2022-07-23T01:12:57;3.58;;;3.00;;
7841;SDS011;3966;51.052;13.820;2022-07-23T01:15:23;6.10;;;3.38;;
7841;SDS011;3966;51.052;13.820;2022-07-23T01:17:49;3.90;;;2.70;;
7841;SDS011;3966;51.052;13.820;2022-07-23T01:20:14;3.72;;;3.42;;
7841;SDS011;3966;51.052;13.820;2022-07-23T01:22:40;7.15;;;3.17;;
7841;SDS011;3966;51.052;13.820;2022-07-23T01:25:06;3.42;;;3.17;;
7841;SDS011;3966;51.052;13.820;2022-07-23T01:27:32;3.50;;;3.20;;
7841;SDS011;3966;51.052;13.820;2022-07-23T01:29:57;3.45;;;3.15;;
7841;SDS011;3966;51.052;13.820;2022-07-23T01:32:25;5.35;;;3.05;;
7841;SDS011;3966;51.052;13.820;2022-07-23T01:34:50;5.55;;;3.10;;
7841;SDS011;3966;51.052;13.820;2022-07-23T01:37:16;3.03;;;2.70;;
7841;SDS011;3966;51.052;13.820;2022-07-23T01:39:41;3.53;;;3.20;;
7841;SDS011;3966;51.052;13.820;2022-07-23T01:42:07;7.45;;;3.63;;
7841;SDS011;3966;51.052;13.820;2022-07-23T01:44:32;4.15;;;3.15;;
7841;SDS011;3966;51.052;13.820;2022-07-23T01:46:58;4.30;;;3.38;;
7841;SDS011;3966;51.052;13.820;2022-07-23T01:49:23;3.17;;;2.90;;
7841;SDS011;3966;51.052;13.820;2022-07-23T01:51:49;3.20;;;3.00;;
7841;SDS011;3966;51.052;13.820;2022-07-23T01:54:27;3.50;;;3.20;;
7841;SDS011;3966;51.052;13.820;2022-07-23T01:56:54;3.38;;;3.08;;
7841;SDS011;3966;51.052;13.820;2022-07-23T01:59:20;3.72;;;3.42;;
7841;SDS011;3966;51.052;13.820;2022-07-23T02:01:45;3.30;;;2.97;;
7841;SDS011;3966;51.052;13.820;2022-07-23T02:04:11;3.67;;;3.33;;
7841;SDS011;3966;51.052;13.820;2022-07-23T02:06:36;3.83;;;2.92;;
7841;SDS011;3966;51.052;13.820;2022-07-23T02:09:02;3.60;;;3.30;;
7841;SDS011;3966;51.052;13.820;2022-07-23T02:11:28;3.72;;;3.22;;
7841;SDS011;3966;51.052;13.820;2022-07-23T02:13:53;3.75;;;3.10;;
7841;SDS011;3966;51.052;13.820;2022-07-23T02:16:18;4.80;;;3.05;;
7841;SDS011;3966;51.052;13.820;2022-07-23T02:18:44;4.05;;;3.22;;
7841;SDS011;3966;51.052;13.820;2022-07-23T02:21:11;4.43;;;3.00;;
7841;SDS011;3966;51.052;13.820;2022-07-23T02:23:36;3.78;;;3.03;;
7841;SDS011;3966;51.052;13.820;2022-07-23T02:26:02;4.28;;;3.15;;
7841;SDS011;3966;51.052;13.820;2022-07-23T02:28:27;3.42;;;3.13;;
7841;SDS011;3966;51.052;13.820;2022-07-23T02:30:53;4.38;;;3.17;;
7841;SDS011;3966;51.052;13.820;2022-07-23T02:33:18;7.93;;;3.58;;
7841;SDS011;3966;51.052;13.820;2022-07-23T02:35:43;4.43;;;3.83;;
7841;SDS011;3966;51.052;13.820;2022-07-23T02:38:09;3.67;;;3.38;;
7841;SDS011;3966;51.052;13.820;2022-07-23T02:40:34;5.10;;;3.47;;
7841;SDS011;3966;51.052;13.820;2022-07-23T02:43:00;3.60;;;3.30;;
7841;SDS011;3966;51.052;13.820;2022-07-23T02:45:25;3.92;;;3.00;;
7841;SDS011;3966;51.052;13.820;2022-07-23T02:47:51;4.60;;;3.00;;
7841;SDS011;3966;51.052;13.820;2022-07-23T02:50:16;8.35;;;3.38;;
7841;SDS011;3966;51.052;13.820;2022-07-23T02:52:42;3.08;;;2.88;;
7841;SDS011;3966;51.052;13.820;2022-07-23T02:55:07;3.65;;;3.10;;
7841;SDS011;3966;51.052;13.820;2022-07-23T02:57:33;4.32;;;3.58;;
7841;SDS011;3966;51.052;13.820;2022-07-23T02:59:59;3.53;;;3.20;;
7841;SDS011;3966;51.052;13.820;2022-07-23T03:02:24;3.75;;;3.22;;
7841;SDS011;3966;51.052;13.820;2022-07-23T03:04:50;3.55;;;3.25;;
7841;SDS011;3966;51.052;13.820;2022-07-23T03:07:16;3.47;;;3.28;;
7841;SDS011;3966;51.052;13.820;2022-07-23T03:09:42;4.15;;;3.60;;
7841;SDS011;3966;51.052;13.820;2022-07-23T03:12:07;3.40;;;3.10;;
7841;SDS011;3966;51.052;13.820;2022-07-23T03:14:33;3.53;;;3.20;;
7841;SDS011;3966;51.052;13.820;2022-07-23T03:16:58;4.50;;;3.25;;
7841;SDS011;3966;51.052;13.820;2022-07-23T03:19:25;4.05;;;3.22;;
7841;SDS011;3966;51.052;13.820;2022-07-23T03:21:51;3.80;;;3.50;;
7841;SDS011;3966;51.052;13.820;2022-07-23T03:24:16;4.05;;;3.30;;
7841;SDS011;3966;51.052;13.820;2022-07-23T03:26:45;4.28;;;3.47;;
7841;SDS011;3966;51.052;13.820;2022-07-23T03:29:10;5.13;;;3.33;;
7841;SDS011;3966;51.052;13.820;2022-07-23T03:31:36;4.60;;;3.83;;
7841;SDS011;3966;51.052;13.820;2022-07-23T03:34:02;3.60;;;3.30;;
7841;SDS011;3966;51.052;13.820;2022-07-23T03:36:27;3.75;;;3.30;;
7841;SDS011;3966;51.052;13.820;2022-07-23T03:38:53;4.00;;;3.33;;
7841;SDS011;3966;51.052;13.820;2022-07-23T03:41:19;4.28;;;3.85;;
7841;SDS011;3966;51.052;13.820;2022-07-23T03:43:44;4.50;;;3.47;;
7841;SDS011;3966;51.052;13.820;2022-07-23T03:46:10;4.68;;;3.33;;
7841;SDS011;3966;51.052;13.820;2022-07-23T03:48:36;3.90;;;3.58;;
7841;SDS011;3966;51.052;13.820;2022-07-23T03:51:02;3.75;;;3.30;;
7841;SDS011;3966;51.052;13.820;2022-07-23T03:53:28;3.92;;;3.63;;
7841;SDS011;3966;51.052;13.820;2022-07-23T03:55:53;4.63;;;3.50;;
7841;SDS011;3966;51.052;13.820;2022-07-23T03:58:19;3.53;;;3.17;;
7841;SDS011;3966;51.052;13.820;2022-07-23T04:00:44;5.82;;;3.80;;
7841;SDS011;3966;51.052;13.820;2022-07-23T04:03:10;5.80;;;3.70;;
7841;SDS011;3966;51.052;13.820;2022-07-23T04:05:35;6.22;;;3.88;;
7841;SDS011;3966;51.052;13.820;2022-07-23T04:08:01;5.15;;;3.67;;
7841;SDS011;3966;51.052;13.820;2022-07-23T04:10:26;5.97;;;3.90;;
7841;SDS011;3966;51.052;13.820;2022-07-23T04:12:52;3.75;;;3.33;;
7841;SDS011;3966;51.052;13.820;2022-07-23T04:15:17;5.50;;;3.88;;
7841;SDS011;3966;51.052;13.820;2022-07-23T04:17:43;4.05;;;3.63;;
7841;SDS011;3966;51.052;13.820;2022-07-23T04:20:10;3.92;;;3.63;;
7841;SDS011;3966;51.052;13.820;2022-07-23T04:22:36;4.47;;;4.00;;
7841;SDS011;3966;51.052;13.820;2022-07-23T04:25:02;4.25;;;3.90;;
7841;SDS011;3966;51.052;13.820;2022-07-23T04:27:28;4.47;;;4.10;;
7841;SDS011;3966;51.052;13.820;2022-07-23T04:29:53;4.60;;;4.20;;
7841;SDS011;3966;51.052;13.820;2022-07-23T04:32:19;6.78;;;3.45;;
7841;SDS011;3966;51.052;13.820;2022-07-23T04:34:44;5.82;;;4.03;;
7841;SDS011;3966;51.052;13.820;2022-07-23T04:37:10;4.65;;;4.20;;
7841;SDS011;3966;51.052;13.820;2022-07-23T04:39:35;4.78;;;4.38;;
7841;SDS011;3966;51.052;13.820;2022-07-23T04:42:01;4.32;;;3.95;;
7841;SDS011;3966;51.052;13.820;2022-07-23T04:44:26;5.55;;;4.20;;
7841;SDS011;3966;51.052;13.820;2022-07-23T04:46:52;4.45;;;4.05;;
7841;SDS011;3966;51.052;13.820;2022-07-23T04:49:17;7.07;;;4.22;;
7841;SDS011;3966;51.052;13.820;2022-07-23T04:51:43;4.72;;;4.07;;
7841;SDS011;3966;51.052;13.820;2022-07-23T04:54:08;5.95;;;4.35;;
7841;SDS011;3966;51.052;13.820;2022-07-23T04:56:34;6.13;;;3.85;;
7841;SDS011;3966;51.052;13.820;2022-07-23T04:58:59;4.63;;;4.18;;
7841;SDS011;3966;51.052;13.820;2022-07-23T05:01:25;6.85;;;3.95;;
7841;SDS011;3966;51.052;13.820;2022-07-23T05:03:50;4.63;;;4.18;;
7841;SDS011;3966;51.052;13.820;2022-07-23T05:06:16;5.43;;;4.00;;
7841;SDS011;3966;51.052;13.820;2022-07-23T05:08:41;6.68;;;3.97;;
7841;SDS011;3966;51.052;13.820;2022-07-23T05:11:07;5.55;;;3.80;;
7841;SDS011;3966;51.052;13.820;2022-07-23T05:13:32;4.30;;;3.90;;
7841;SDS011;3966;51.052;13.820;2022-07-23T05:15:58;4.15;;;3.85;;
7841;SDS011;3966;51.052;13.820;2022-07-23T05:18:23;4.43;;;3.92;;
7841;SDS011;3966;51.052;13.820;2022-07-23T05:20:48;4.63;;;3.88;;
7841;SDS011;3966;51.052;13.820;2022-07-23T05:23:14;5.53;;;4.28;;
7841;SDS011;3966;51.052;13.820;2022-07-23T05:25:39;3.85;;;3.55;;
7841;SDS011;3966;51.052;13.820;2022-07-23T05:28:05;4.38;;;3.67;;
7841;SDS011;3966;51.052;13.820;2022-07-23T05:30:31;4.28;;;3.92;;
7841;SDS011;3966;51.052;13.820;2022-07-23T05:32:56;5.28;;;4.60;;
7841;SDS011;3966;51.052;13.820;2022-07-23T05:35:22;6.15;;;3.55;;
7841;SDS011;3966;51.052;13.820;2022-07-23T05:37:47;3.95;;;3.65;;
7841;SDS011;3966;51.052;13.820;2022-07-23T05:40:13;5.20;;;3.85;;
7841;SDS011;3966;51.052;13.820;2022-07-23T05:42:39;6.35;;;4.57;;
7841;SDS011;3966;51.052;13.820;2022-07-23T05:45:07;7.05;;;3.85;;
7841;SDS011;3966;51.052;13.820;2022-07-23T05:47:43;7.80;;;3.97;;
7841;SDS011;3966;51.052;13.820;2022-07-23T05:50:11;6.05;;;4.00;;
7841;SDS011;3966;51.052;13.820;2022-07-23T05:52:37;4.03;;;3.63;;
7841;SDS011;3966;51.052;13.820;2022-07-23T05:55:03;8.68;;;4.47;;
7841;SDS011;3966;51.052;13.820;2022-07-23T05:57:29;5.75;;;4.43;;
7841;SDS011;3966;51.052;13.820;2022-07-23T05:59:55;5.63;;;4.00;;
7841;SDS011;3966;51.052;13.820;2022-07-23T06:02:20;4.50;;;4.07;;
7841;SDS011;3966;51.052;13.820;2022-07-23T06:04:46;4.72;;;4.25;;
7841;SDS011;3966;51.052;13.820;2022-07-23T06:07:11;7.68;;;4.07;;
7841;SDS011;3966;51.052;13.820;2022-07-23T06:09:37;4.22;;;3.45;;
7841;SDS011;3966;51.052;13.820;2022-07-23T06:12:03;4.82;;;3.78;;
7841;SDS011;3966;51.052;13.820;2022-07-23T06:14:28;5.90;;;4.13;;
7841;SDS011;3966;51.052;13.820;2022-07-23T06:16:54;3.88;;;3.58;;
7841;SDS011;3966;51.052;13.820;2022-07-23T06:19:19;5.20;;;4.22;;
7841;SDS011;3966;51.052;13.820;2022-07-23T06:21:45;3.88;;;3.55;;
7841;SDS011;3966;51.052;13.820;2022-07-23T06:24:10;3.95;;;3.60;;
7841;SDS011;3966;51.052;13.820;2022-07-23T06:26:36;3.80;;;3.50;;
7841;SDS011;3966;51.052;13.820;2022-07-23T06:29:01;4.90;;;3.67;;
7841;SDS011;3966;51.052;13.820;2022-07-23T06:31:27;4.30;;;3.90;;
7841;SDS011;3966;51.052;13.820;2022-07-23T06:33:52;4.95;;;3.75;;
7841;SDS011;3966;51.052;13.820;2022-07-23T06:36:18;5.22;;;4.00;;
7841;SDS011;3966;51.052;13.820;2022-07-23T06:38:43;4.55;;;4.15;;
7841;SDS011;3966;51.052;13.820;2022-07-23T06:41:09;4.55;;;4.15;;
7841;SDS011;3966;51.052;13.820;2022-07-23T06:43:34;6.18;;;4.18;;
7841;SDS011;3966;51.052;13.820;2022-07-23T06:46:00;5.95;;;4.70;;
7841;SDS011;3966;51.052;13.820;2022-07-23T06:48:25;7.13;;;4.15;;
7841;SDS011;3966;51.052;13.820;2022-07-23T06:50:51;7.82;;;4.35;;
7841;SDS011;3966;51.052;13.820;2022-07-23T06:53:17;14.10;;;4.88;;
7841;SDS011;3966;51.052;13.820;2022-07-23T06:55:43;5.82;;;4.13;;
7841;SDS011;3966;51.052;13.820;2022-07-23T06:58:08;4.82;;;4.32;;
7841;SDS011;3966;51.052;13.820;2022-07-23T07:00:35;5.03;;;4.55;;
7841;SDS011;3966;51.052;13.820;2022-07-23T07:03:00;4.78;;;3.90;;
7841;SDS011;3966;51.052;13.820;2022-07-23T07:05:26;5.63;;;4.53;;
7841;SDS011;3966;51.052;13.820;2022-07-23T07:07:52;8.23;;;4.22;;
7841;SDS011;3966;51.052;13.820;2022-07-23T07:10:20;6.00;;;4.60;;
7841;SDS011;3966;51.052;13.820;2022-07-23T07:12:46;7.80;;;5.38;;
7841;SDS011;3966;51.052;13.820;2022-07-23T07:15:11;7.40;;;5.13;;
7841;SDS011;3966;51.052;13.820;2022-07-23T07:17:37;5.22;;;4.72;;
7841;SDS011;3966;51.052;13.820;2022-07-23T07:20:03;5.78;;;5.05;;
7841;SDS011;3966;51.052;13.820;2022-07-23T07:22:29;5.85;;;4.47;;
7841;SDS011;3966;51.052;13.820;2022-07-23T07:24:54;6.78;;;5.07;;
7841;SDS011;3966;51.052;13.820;2022-07-23T07:27:20;6.88;;;4.68;;
7841;SDS011;3966;51.052;13.820;2022-07-23T07:29:45;5.63;;;4.57;;
7841;SDS011;3966;51.052;13.820;2022-07-23T07:32:11;6.95;;;4.60;;
7841;SDS011;3966;51.052;13.820;2022-07-23T07:34:36;8.63;;;4.82;;
7841;SDS011;3966;51.052;13.820;2022-07-23T07:37:02;6.05;;;4.60;;
7841;SDS011;3966;51.052;13.820;2022-07-23T07:39:27;5.18;;;4.20;;
7841;SDS011;3966;51.052;13.820;2022-07-23T07:41:53;4.60;;;4.18;;
7841;SDS011;3966;51.052;13.820;2022-07-23T07:44:18;4.30;;;3.90;;
7841;SDS011;3966;51.052;13.820;2022-07-23T07:46:44;4.43;;;4.03;;
7841;SDS011;3966;51.052;13.820;2022-07-23T07:49:09;5.45;;;3.75;;
7841;SDS011;3966;51.052;13.820;2022-07-23T07:51:35;4.88;;;3.92;;
7841;SDS011;3966;51.052;13.820;2022-07-23T07:54:00;6.13;;;3.85;;
7841;SDS011;3966;51.052;13.820;2022-07-23T07:56:26;5.13;;;3.72;;
7841;SDS011;3966;51.052;13.820;2022-07-23T07:58:51;4.15;;;3.80;;
7841;SDS011;3966;51.052;13.820;2022-07-23T08:01:17;3.83;;;3.53;;
7841;SDS011;3966;51.052;13.820;2022-07-23T08:03:44;4.88;;;4.10;;
7841;SDS011;3966;51.052;13.820;2022-07-23T08:06:10;4.32;;;3.85;;
7841;SDS011;3966;51.052;13.820;2022-07-23T08:08:36;4.05;;;3.60;;
7841;SDS011;3966;51.052;13.820;2022-07-23T08:11:01;5.25;;;4.07;;
7841;SDS011;3966;51.052;13.820;2022-07-23T08:13:27;4.93;;;4.30;;
7841;SDS011;3966;51.052;13.820;2022-07-23T08:18:28;4.82;;;4.10;;
7841;SDS011;3966;51.052;13.820;2022-07-23T08:20:53;3.95;;;3.65;;
7841;SDS011;3966;51.052;13.820;2022-07-23T08:23:19;4.07;;;3.60;;
7841;SDS011;3966;51.052;13.820;2022-07-23T08:25:45;8.00;;;3.75;;
7841;SDS011;3966;51.052;13.820;2022-07-23T08:28:11;4.22;;;3.55;;
7841;SDS011;3966;51.052;13.820;2022-07-23T08:30:38;5.28;;;3.55;;
7841;SDS011;3966;51.052;13.820;2022-07-23T08:35:39;4.88;;;4.10;;
7841;SDS011;3966;51.052;13.820;2022-07-23T08:40:34;4.07;;;3.60;;
7841;SDS011;3966;51.052;13.820;2022-07-23T08:43:04;8.05;;;3.75;;
7841;SDS011;3966;51.052;13.820;2022-07-23T08:45:31;4.25;;;3.83;;
7841;SDS011;3966;51.052;13.820;2022-07-23T08:48:02;7.88;;;3.97;;
7841;SDS011;3966;51.052;13.820;2022-07-23T08:50:29;5.82;;;3.88;;
7841;SDS011;3966;51.052;13.820;2022-07-23T08:52:55;5.07;;;4.32;;
7841;SDS011;3966;51.052;13.820;2022-07-23T08:55:23;5.43;;;3.88;;
7841;SDS011;3966;51.052;13.820;2022-07-23T08:57:50;7.50;;;3.90;;
7841;SDS011;3966;51.052;13.820;2022-07-23T09:00:17;8.55;;;3.88;;
7841;SDS011;3966;51.052;13.820;2022-07-23T09:02:44;4.30;;;3.90;;
7841;SDS011;3966;51.052;13.820;2022-07-23T09:05:11;4.28;;;3.88;;
7841;SDS011;3966;51.052;13.820;2022-07-23T09:07:38;3.78;;;3.42;;
7841;SDS011;3966;51.052;13.820;2022-07-23T09:13:23;6.93;;;4.00;;
7841;SDS011;3966;51.052;13.820;2022-07-23T09:16:08;5.85;;;4.28;;
7841;SDS011;3966;51.052;13.820;2022-07-23T09:18:36;7.30;;;4.00;;
7841;SDS011;3966;51.052;13.820;2022-07-23T09:23:40;5.88;;;4.05;;
7841;SDS011;3966;51.052;13.820;2022-07-23T09:29:17;4.35;;;3.95;;
7841;SDS011;3966;51.052;13.820;2022-07-23T09:31:59;6.22;;;4.53;;
7841;SDS011;3966;51.052;13.820;2022-07-23T09:34:27;5.68;;;3.80;;
7841;SDS011;3966;51.052;13.820;2022-07-23T09:37:17;5.45;;;4.30;;
7841;SDS011;3966;51.052;13.820;2022-07-23T09:39:43;6.57;;;3.80;;
7841;SDS011;3966;51.052;13.820;2022-07-23T09:42:23;4.05;;;3.67;;
7841;SDS011;3966;51.052;13.820;2022-07-23T09:44:53;5.28;;;3.90;;
7841;SDS011;3966;51.052;13.820;2022-07-23T09:47:23;6.13;;;4.03;;
7841;SDS011;3966;51.052;13.820;2022-07-23T09:50:07;4.70;;;3.90;;
7841;SDS011;3966;51.052;13.820;2022-07-23T09:52:35;5.40;;;4.10;;
7841;SDS011;3966;51.052;13.820;2022-07-23T09:55:07;4.93;;;3.83;;
7841;SDS011;3966;51.052;13.820;2022-07-23T09:57:34;4.97;;;3.83;;
7841;SDS011;3966;51.052;13.820;2022-07-23T10:00:01;4.28;;;3.85;;
7841;SDS011;3966;51.052;13.820;2022-07-23T10:02:34;4.47;;;4.00;;
7841;SDS011;3966;51.052;13.820;2022-07-23T10:05:01;6.80;;;3.63;;
7841;SDS011;3966;51.052;13.820;2022-07-23T10:07:27;5.00;;;4.50;;
7841;SDS011;3966;51.052;13.820;2022-07-23T10:09:58;6.68;;;4.40;;
7841;SDS011;3966;51.052;13.820;2022-07-23T10:12:25;5.45;;;3.60;;
7841;SDS011;3966;51.052;13.820;2022-07-23T10:14:58;4.57;;;4.18;;
7841;SDS011;3966;51.052;13.820;2022-07-23T10:17:25;5.10;;;4.57;;
7841;SDS011;3966;51.052;13.820;2022-07-23T10:19:52;7.28;;;4.88;;
7841;SDS011;3966;51.052;13.820;2022-07-23T10:22:22;6.20;;;4.13;;
7841;SDS011;3966;51.052;13.820;2022-07-23T10:36:07;4.57;;;4.15;;
7841;SDS011;3966;51.052;13.820;2022-07-23T10:38:54;11.50;;;4.30;;
7841;SDS011;3966;51.052;13.820;2022-07-23T10:41:38;5.15;;;4.65;;
7841;SDS011;3966;51.052;13.820;2022-07-23T10:44:08;4.93;;;4.32;;
7841;SDS011;3966;51.052;13.820;2022-07-23T10:46:57;12.38;;;4.80;;
7841;SDS011;3966;51.052;13.820;2022-07-23T10:49:43;4.80;;;4.40;;
7841;SDS011;3966;51.052;13.820;2022-07-23T10:57:12;6.20;;;4.68;;
7841;SDS011;3966;51.052;13.820;2022-07-23T11:02:27;4.25;;;3.88;;
7841;SDS011;3966;51.052;13.820;2022-07-23T11:04:56;6.10;;;4.28;;
7841;SDS011;3966;51.052;13.820;2022-07-23T11:07:25;6.93;;;4.68;;
7841;SDS011;3966;51.052;13.820;2022-07-23T11:09:51;4.80;;;4.38;;
7841;SDS011;3966;51.052;13.820;2022-07-23T11:17:30;5.10;;;3.97;;
7841;SDS011;3966;51.052;13.820;2022-07-23T11:22:46;5.88;;;4.15;;
7841;SDS011;3966;51.052;13.820;2022-07-23T11:25:14;4.93;;;3.85;;
7841;SDS011;3966;51.052;13.820;2022-07-23T11:28:11;5.03;;;4.30;;
7841;SDS011;3966;51.052;13.820;2022-07-23T11:30:41;5.75;;;4.07;;
7841;SDS011;3966;51.052;13.820;2022-07-23T11:35:38;4.28;;;3.80;;
7841;SDS011;3966;51.052;13.820;2022-07-23T11:38:13;4.82;;;3.72;;
7841;SDS011;3966;51.052;13.820;2022-07-23T11:40:40;5.65;;;4.07;;
7841;SDS011;3966;51.052;13.820;2022-07-23T11:43:09;5.68;;;4.00;;
7841;SDS011;3966;51.052;13.820;2022-07-23T11:45:36;8.52;;;4.00;;
7841;SDS011;3966;51.052;13.820;2022-07-23T11:48:04;4.80;;;3.70;;
7841;SDS011;3966;51.052;13.820;2022-07-23T11:50:31;5.03;;;3.40;;
7841;SDS011;3966;51.052;13.820;2022-07-23T11:52:57;5.85;;;3.42;;
7841;SDS011;3966;51.052;13.820;2022-07-23T11:55:22;4.35;;;3.60;;
7841;SDS011;3966;51.052;13.820;2022-07-23T11:57:50;4.78;;;3.40;;
7841;SDS011;3966;51.052;13.820;2022-07-23T12:00:18;4.63;;;3.50;;
7841;SDS011;3966;51.052;13.820;2022-07-23T12:02:47;3.58;;;3.38;;
7841;SDS011;3966;51.052;13.820;2022-07-23T12:05:16;4.78;;;3.83;;
7841;SDS011;3966;51.052;13.820;2022-07-23T12:07:43;4.28;;;3.63;;
7841;SDS011;3966;51.052;13.820;2022-07-23T12:10:12;4.47;;;3.55;;
7841;SDS011;3966;51.052;13.820;2022-07-23T12:12:44;6.15;;;4.30;;
7841;SDS011;3966;51.052;13.820;2022-07-23T12:15:12;4.68;;;4.20;;
7841;SDS011;3966;51.052;13.820;2022-07-23T12:17:41;4.90;;;4.50;;
7841;SDS011;3966;51.052;13.820;2022-07-23T12:20:09;4.18;;;3.83;;
7841;SDS011;3966;51.052;13.820;2022-07-23T12:22:38;4.70;;;4.30;;
7841;SDS011;3966;51.052;13.820;2022-07-23T12:25:07;8.10;;;4.72;;
7841;SDS011;3966;51.052;13.820;2022-07-23T12:27:35;5.22;;;4.70;;
7841;SDS011;3966;51.052;13.820;2022-07-23T12:32:51;5.97;;;4.70;;
7841;SDS011;3966;51.052;13.820;2022-07-23T12:35:19;6.45;;;4.63;;
7841;SDS011;3966;51.052;13.820;2022-07-23T12:37:46;5.75;;;5.20;;
7841;SDS011;3966;51.052;13.820;2022-07-23T12:40:19;4.97;;;4.65;;
7841;SDS011;3966;51.052;13.820;2022-07-23T12:42:50;5.40;;;4.88;;
7841;SDS011;3966;51.052;13.820;2022-07-23T12:45:20;5.45;;;4.75;;
7841;SDS011;3966;51.052;13.820;2022-07-23T12:48:05;5.97;;;5.00;;
7841;SDS011;3966;51.052;13.820;2022-07-23T12:53:05;5.68;;;4.97;;
7841;SDS011;3966;51.052;13.820;2022-07-23T12:55:36;5.57;;;4.80;;
7841;SDS011;3966;51.052;13.820;2022-07-23T12:58:06;5.88;;;5.13;;
7841;SDS011;3966;51.052;13.820;2022-07-23T13:00:48;6.03;;;5.07;;
7841;SDS011;3966;51.052;13.820;2022-07-23T13:03:22;5.45;;;4.82;;
7841;SDS011;3966;51.052;13.820;2022-07-23T13:06:09;7.10;;;4.80;;
7841;SDS011;3966;51.052;13.820;2022-07-23T13:08:37;5.13;;;4.63;;
7841;SDS011;3966;51.052;13.820;2022-07-23T13:11:03;5.40;;;4.70;;
7841;SDS011;3966;51.052;13.820;2022-07-23T13:13:30;6.20;;;5.00;;
7841;SDS011;3966;51.052;13.820;2022-07-23T13:15:58;5.97;;;4.65;;
7841;SDS011;3966;51.052;13.820;2022-07-23T13:18:25;6.05;;;4.50;;
7841;SDS011;3966;51.052;13.820;2022-07-23T13:20:52;4.75;;;4.35;;
7841;SDS011;3966;51.052;13.820;2022-07-23T13:23:18;5.40;;;4.90;;
7841;SDS011;3966;51.052;13.820;2022-07-23T13:25:44;5.15;;;4.32;;
7841;SDS011;3966;51.052;13.820;2022-07-23T13:28:10;4.78;;;4.38;;
7841;SDS011;3966;51.052;13.820;2022-07-23T13:30:36;6.75;;;4.60;;
7841;SDS011;3966;51.052;13.820;2022-07-23T13:33:02;9.07;;;4.78;;
7841;SDS011;3966;51.052;13.820;2022-07-23T13:35:28;6.13;;;4.45;;
7841;SDS011;3966;51.052;13.820;2022-07-23T13:37:54;4.85;;;4.15;;
7841;SDS011;3966;51.052;13.820;2022-07-23T13:40:20;5.07;;;4.45;;
7841;SDS011;3966;51.052;13.820;2022-07-23T13:42:46;4.85;;;4.40;;
7841;SDS011;3966;51.052;13.820;2022-07-23T13:45:11;4.70;;;4.20;;
7841;SDS011;3966;51.052;13.820;2022-07-23T13:47:37;7.38;;;4.78;;
7841;SDS011;3966;51.052;13.820;2022-07-23T13:50:03;5.20;;;4.70;;
7841;SDS011;3966;51.052;13.820;2022-07-23T13:52:29;6.45;;;4.45;;
7841;SDS011;3966;51.052;13.820;2022-07-23T13:54:55;5.82;;;4.75;;
7841;SDS011;3966;51.052;13.820;2022-07-23T13:57:20;5.72;;;4.47;;
7841;SDS011;3966;51.052;13.820;2022-07-23T13:59:46;5.15;;;4.47;;
7841;SDS011;3966;51.052;13.820;2022-07-23T14:02:11;5.60;;;5.10;;
7841;SDS011;3966;51.052;13.820;2022-07-23T14:04:41;5.65;;;5.10;;
7841;SDS011;3966;51.052;13.820;2022-07-23T14:07:07;5.93;;;4.97;;
7841;SDS011;3966;51.052;13.820;2022-07-23T14:09:32;5.68;;;4.82;;
7841;SDS011;3966;51.052;13.820;2022-07-23T14:11:58;6.53;;;5.20;;
7841;SDS011;3966;51.052;13.820;2022-07-23T14:14:24;5.05;;;4.57;;
7841;SDS011;3966;51.052;13.820;2022-07-23T14:16:50;5.43;;;4.85;;
7841;SDS011;3966;51.052;13.820;2022-07-23T14:19:15;5.30;;;4.80;;
7841;SDS011;3966;51.052;13.820;2022-07-23T14:21:41;5.15;;;4.60;;
7841;SDS011;3966;51.052;13.820;2022-07-23T14:24:06;6.43;;;4.38;;
7841;SDS011;3966;51.052;13.820;2022-07-23T14:26:32;6.13;;;5.15;;
7841;SDS011;3966;51.052;13.820;2022-07-23T14:28:57;7.00;;;5.05;;
7841;SDS011;3966;51.052;13.820;2022-07-23T14:31:23;7.40;;;4.85;;
7841;SDS011;3966;51.052;13.820;2022-07-23T14:33:48;6.03;;;4.75;;
7841;SDS011;3966;51.052;13.820;2022-07-23T14:36:14;6.65;;;5.20;;
7841;SDS011;3966;51.052;13.820;2022-07-23T14:38:40;6.57;;;4.57;;
7841;SDS011;3966;51.052;13.820;2022-07-23T14:41:06;6.20;;;4.70;;
7841;SDS011;3966;51.052;13.820;2022-07-23T14:43:33;7.53;;;4.90;;
7841;SDS011;3966;51.052;13.820;2022-07-23T14:45:59;6.75;;;4.10;;
7841;SDS011;3966;51.052;13.820;2022-07-23T14:48:24;4.63;;;4.22;;
7841;SDS011;3966;51.052;13.820;2022-07-23T14:50:50;4.65;;;4.28;;
7841;SDS011;3966;51.052;13.820;2022-07-23T14:53:15;4.97;;;4.45;;
7841;SDS011;3966;51.052;13.820;2022-07-23T14:55:41;4.68;;;4.28;;
7841;SDS011;3966;51.052;13.820;2022-07-23T14:58:07;6.45;;;4.70;;
7841;SDS011;3966;51.052;13.820;2022-07-23T15:00:32;6.60;;;4.45;;
7841;SDS011;3966;51.052;13.820;2022-07-23T15:02:58;5.50;;;4.97;;
7841;SDS011;3966;51.052;13.820;2022-07-23T15:05:23;4.97;;;4.55;;
7841;SDS011;3966;51.052;13.820;2022-07-23T15:07:49;4.82;;;4.43;;
7841;SDS011;3966;51.052;13.820;2022-07-23T15:10:15;5.80;;;4.95;;
7841;SDS011;3966;51.052;13.820;2022-07-23T15:12:40;5.05;;;4.55;;
7841;SDS011;3966;51.052;13.820;2022-07-23T15:15:06;6.07;;;4.70;;
7841;SDS011;3966;51.052;13.820;2022-07-23T15:17:32;4.50;;;4.20;;
7841;SDS011;3966;51.052;13.820;2022-07-23T15:19:58;5.85;;;5.05;;
7841;SDS011;3966;51.052;13.820;2022-07-23T15:22:23;7.13;;;4.82;;
7841;SDS011;3966;51.052;13.820;2022-07-23T15:24:49;5.40;;;4.82;;
7841;SDS011;3966;51.052;13.820;2022-07-23T15:27:14;9.63;;;4.93;;
7841;SDS011;3966;51.052;13.820;2022-07-23T15:29:42;5.70;;;5.18;;
7841;SDS011;3966;51.052;13.820;2022-07-23T15:32:08;6.30;;;4.60;;
7841;SDS011;3966;51.052;13.820;2022-07-23T15:34:33;9.77;;;5.30;;
7841;SDS011;3966;51.052;13.820;2022-07-23T15:37:00;5.80;;;4.85;;
7841;SDS011;3966;51.052;13.820;2022-07-23T15:39:26;5.32;;;4.82;;
7841;SDS011;3966;51.052;13.820;2022-07-23T15:41:51;5.88;;;5.10;;
7841;SDS011;3966;51.052;13.820;2022-07-23T15:44:17;5.45;;;4.95;;
7841;SDS011;3966;51.052;13.820;2022-07-23T15:46:42;5.20;;;4.70;;
7841;SDS011;3966;51.052;13.820;2022-07-23T15:49:08;7.80;;;4.70;;
7841;SDS011;3966;51.052;13.820;2022-07-23T15:51:33;7.18;;;5.15;;